sensor_id;sensor_type;location;lat;lon;timestamp;P1;durP1;ratioP1;P2;durP2;ratioP2
8337;SDS011;4206;48.634;9.516;2023-02-28T00:00:53;3.20;;;2.23;;
8337;SDS011;4206;48.634;9.516;2023-02-28T00:03:20;2.67;;;1.60;;
8337;SDS011;4206;48.634;9.516;2023-02-28T00:05:47;3.77;;;2.00;;
8337;SDS011;4206;48.634;9.516;2023-02-28T00:08:14;3.60;;;2.13;;
8337;SDS011;4206;48.634;9.516;2023-02-28T00:10:41;4.07;;;2.60;;
8337;SDS011;4206;48.634;9.516;2023-02-28T00:13:09;3.10;;;1.73;;
8337;SDS011;4206;48.634;9.516;2023-02-28T00:15:37;3.63;;;2.20;;
8337;SDS011;4206;48.634;9.516;2023-02-28T00:18:04;3.90;;;2.00;;
8337;SDS011;4206;48.634;9.516;2023-02-28T00:20:31;3.43;;;1.90;;
8337;SDS011;4206;48.634;9.516;2023-02-28T00:22:58;2.73;;;1.90;;
8337;SDS011;4206;48.634;9.516;2023-02-28T00:25:25;3.00;;;1.90;;
8337;SDS011;4206;48.634;9.516;2023-02-28T00:27:52;5.10;;;2.47;;
8337;SDS011;4206;48.634;9.516;2023-02-28T00:30:20;3.97;;;1.83;;
8337;SDS011;4206;48.634;9.516;2023-02-28T00:32:49;2.90;;;1.93;;
8337;SDS011;4206;48.634;9.516;2023-02-28T00:35:18;5.53;;;2.33;;
8337;SDS011;4206;48.634;9.516;2023-02-28T00:37:45;4.67;;;2.03;;
8337;SDS011;4206;48.634;9.516;2023-02-28T00:40:13;3.50;;;2.10;;
8337;SDS011;4206;48.634;9.516;2023-02-28T00:42:40;4.20;;;2.17;;
8337;SDS011;4206;48.634;9.516;2023-02-28T00:45:07;1.87;;;1.67;;
8337;SDS011;4206;48.634;9.516;2023-02-28T00:47:35;3.37;;;1.80;;
8337;SDS011;4206;48.634;9.516;2023-02-28T00:50:02;2.67;;;1.73;;
8337;SDS011;4206;48.634;9.516;2023-02-28T00:52:30;2.83;;;1.80;;
8337;SDS011;4206;48.634;9.516;2023-02-28T00:54:57;2.93;;;1.83;;
8337;SDS011;4206;48.634;9.516;2023-02-28T00:57:23;4.20;;;1.90;;
8337;SDS011;4206;48.634;9.516;2023-02-28T00:59:50;4.07;;;2.03;;
8337;SDS011;4206;48.634;9.516;2023-02-28T01:02:21;4.47;;;2.07;;
8337;SDS011;4206;48.634;9.516;2023-02-28T01:04:48;4.17;;;1.80;;
8337;SDS011;4206;48.634;9.516;2023-02-28T01:07:16;3.30;;;1.80;;
8337;SDS011;4206;48.634;9.516;2023-02-28T01:09:42;2.90;;;1.80;;
8337;SDS011;4206;48.634;9.516;2023-02-28T01:12:10;4.17;;;1.97;;
8337;SDS011;4206;48.634;9.516;2023-02-28T01:14:37;2.90;;;1.60;;
8337;SDS011;4206;48.634;9.516;2023-02-28T01:17:04;2.60;;;1.63;;
8337;SDS011;4206;48.634;9.516;2023-02-28T01:19:30;2.03;;;1.70;;
8337;SDS011;4206;48.634;9.516;2023-02-28T01:22:00;3.37;;;1.80;;
8337;SDS011;4206;48.634;9.516;2023-02-28T01:24:28;5.87;;;1.90;;
8337;SDS011;4206;48.634;9.516;2023-02-28T01:26:55;3.20;;;1.70;;
8337;SDS011;4206;48.634;9.516;2023-02-28T01:29:22;3.57;;;2.00;;
8337;SDS011;4206;48.634;9.516;2023-02-28T01:31:49;6.10;;;1.90;;
8337;SDS011;4206;48.634;9.516;2023-02-28T01:34:16;2.27;;;1.40;;
8337;SDS011;4206;48.634;9.516;2023-02-28T01:36:45;2.80;;;1.60;;
8337;SDS011;4206;48.634;9.516;2023-02-28T01:39:12;2.40;;;1.53;;
8337;SDS011;4206;48.634;9.516;2023-02-28T01:41:39;4.97;;;1.97;;
8337;SDS011;4206;48.634;9.516;2023-02-28T01:44:55;3.83;;;1.90;;
8337;SDS011;4206;48.634;9.516;2023-02-28T01:47:09;2.30;;;2.00;;
8337;SDS011;4206;48.634;9.516;2023-02-28T01:49:36;6.10;;;1.87;;
8337;SDS011;4206;48.634;9.516;2023-02-28T01:52:04;3.23;;;2.03;;
8337;SDS011;4206;48.634;9.516;2023-02-28T01:54:31;2.27;;;1.70;;
8337;SDS011;4206;48.634;9.516;2023-02-28T01:57:05;4.27;;;2.13;;
8337;SDS011;4206;48.634;9.516;2023-02-28T01:59:38;4.80;;;2.70;;
8337;SDS011;4206;48.634;9.516;2023-02-28T02:02:13;3.60;;;2.17;;
8337;SDS011;4206;48.634;9.516;2023-02-28T02:04:45;3.73;;;1.80;;
8337;SDS011;4206;48.634;9.516;2023-02-28T02:07:17;3.77;;;2.23;;
8337;SDS011;4206;48.634;9.516;2023-02-28T02:09:44;2.43;;;1.80;;
8337;SDS011;4206;48.634;9.516;2023-02-28T02:12:16;2.60;;;1.90;;
8337;SDS011;4206;48.634;9.516;2023-02-28T02:17:32;4.83;;;2.10;;
8337;SDS011;4206;48.634;9.516;2023-02-28T02:31:13;3.20;;;2.57;;
8337;SDS011;4206;48.634;9.516;2023-02-28T02:36:13;4.43;;;2.43;;
8337;SDS011;4206;48.634;9.516;2023-02-28T02:38:48;6.33;;;2.40;;
8337;SDS011;4206;48.634;9.516;2023-02-28T02:41:19;3.53;;;2.03;;
8337;SDS011;4206;48.634;9.516;2023-02-28T02:43:56;3.40;;;2.43;;
8337;SDS011;4206;48.634;9.516;2023-02-28T02:46:34;3.43;;;2.40;;
8337;SDS011;4206;48.634;9.516;2023-02-28T02:49:06;3.80;;;2.13;;
8337;SDS011;4206;48.634;9.516;2023-02-28T02:51:38;3.30;;;2.20;;
8337;SDS011;4206;48.634;9.516;2023-02-28T02:54:11;6.80;;;2.90;;
8337;SDS011;4206;48.634;9.516;2023-02-28T02:56:44;4.27;;;2.90;;
8337;SDS011;4206;48.634;9.516;2023-02-28T02:59:13;4.40;;;2.33;;
8337;SDS011;4206;48.634;9.516;2023-02-28T03:01:48;4.90;;;2.97;;
8337;SDS011;4206;48.634;9.516;2023-02-28T03:04:19;8.63;;;3.17;;
8337;SDS011;4206;48.634;9.516;2023-02-28T03:06:48;7.50;;;2.90;;
8337;SDS011;4206;48.634;9.516;2023-02-28T03:09:21;4.93;;;2.53;;
8337;SDS011;4206;48.634;9.516;2023-02-28T03:11:49;3.17;;;1.83;;
8337;SDS011;4206;48.634;9.516;2023-02-28T03:17:05;5.90;;;2.60;;
8337;SDS011;4206;48.634;9.516;2023-02-28T03:25:09;4.13;;;2.63;;
8337;SDS011;4206;48.634;9.516;2023-02-28T03:30:35;4.37;;;2.77;;
8337;SDS011;4206;48.634;9.516;2023-02-28T03:35:39;4.43;;;2.63;;
8337;SDS011;4206;48.634;9.516;2023-02-28T03:38:16;3.03;;;2.20;;
8337;SDS011;4206;48.634;9.516;2023-02-28T03:40:48;5.33;;;2.60;;
8337;SDS011;4206;48.634;9.516;2023-02-28T03:43:23;6.37;;;2.50;;
8337;SDS011;4206;48.634;9.516;2023-02-28T03:45:54;3.57;;;2.30;;
8337;SDS011;4206;48.634;9.516;2023-02-28T03:48:25;2.77;;;2.23;;
8337;SDS011;4206;48.634;9.516;2023-02-28T03:50:58;3.90;;;2.90;;
8337;SDS011;4206;48.634;9.516;2023-02-28T03:53:27;5.23;;;3.00;;
8337;SDS011;4206;48.634;9.516;2023-02-28T03:56:01;4.27;;;2.13;;
8337;SDS011;4206;48.634;9.516;2023-02-28T05:01:53;6.30;;;3.60;;
8337;SDS011;4206;48.634;9.516;2023-02-28T05:04:20;7.53;;;3.97;;
8337;SDS011;4206;48.634;9.516;2023-02-28T05:06:46;4.63;;;3.17;;
8337;SDS011;4206;48.634;9.516;2023-02-28T05:09:13;6.17;;;3.20;;
8337;SDS011;4206;48.634;9.516;2023-02-28T05:11:40;5.70;;;3.53;;
8337;SDS011;4206;48.634;9.516;2023-02-28T05:14:10;6.90;;;3.80;;
8337;SDS011;4206;48.634;9.516;2023-02-28T05:16:38;6.27;;;3.60;;
8337;SDS011;4206;48.634;9.516;2023-02-28T05:19:05;5.53;;;3.73;;
8337;SDS011;4206;48.634;9.516;2023-02-28T05:21:33;14.87;;;8.17;;
8337;SDS011;4206;48.634;9.516;2023-02-28T05:24:02;6.63;;;3.40;;
8337;SDS011;4206;48.634;9.516;2023-02-28T05:26:34;7.10;;;3.93;;
8337;SDS011;4206;48.634;9.516;2023-02-28T05:29:03;7.73;;;4.20;;
8337;SDS011;4206;48.634;9.516;2023-02-28T05:31:30;7.40;;;4.30;;
8337;SDS011;4206;48.634;9.516;2023-02-28T05:33:58;8.50;;;4.30;;
8337;SDS011;4206;48.634;9.516;2023-02-28T05:36:25;7.90;;;4.53;;
8337;SDS011;4206;48.634;9.516;2023-02-28T05:38:52;7.50;;;3.80;;
8337;SDS011;4206;48.634;9.516;2023-02-28T05:41:19;5.77;;;3.63;;
8337;SDS011;4206;48.634;9.516;2023-02-28T05:43:46;8.50;;;4.20;;
8337;SDS011;4206;48.634;9.516;2023-02-28T05:46:14;5.77;;;3.70;;
8337;SDS011;4206;48.634;9.516;2023-02-28T05:48:42;7.10;;;4.03;;
8337;SDS011;4206;48.634;9.516;2023-02-28T05:51:11;7.07;;;4.50;;
8337;SDS011;4206;48.634;9.516;2023-02-28T05:53:38;8.07;;;4.10;;
8337;SDS011;4206;48.634;9.516;2023-02-28T05:56:05;7.30;;;5.07;;
8337;SDS011;4206;48.634;9.516;2023-02-28T05:58:32;9.10;;;4.57;;
8337;SDS011;4206;48.634;9.516;2023-02-28T06:01:00;6.50;;;4.30;;
8337;SDS011;4206;48.634;9.516;2023-02-28T06:03:45;6.20;;;4.90;;
8337;SDS011;4206;48.634;9.516;2023-02-28T06:06:12;8.47;;;4.50;;
8337;SDS011;4206;48.634;9.516;2023-02-28T06:08:39;7.13;;;5.27;;
8337;SDS011;4206;48.634;9.516;2023-02-28T06:11:06;8.00;;;4.37;;
8337;SDS011;4206;48.634;9.516;2023-02-28T06:13:33;6.43;;;4.70;;
8337;SDS011;4206;48.634;9.516;2023-02-28T06:16:00;7.23;;;4.50;;
8337;SDS011;4206;48.634;9.516;2023-02-28T06:18:27;10.83;;;4.43;;
8337;SDS011;4206;48.634;9.516;2023-02-28T06:20:54;7.23;;;4.37;;
8337;SDS011;4206;48.634;9.516;2023-02-28T06:23:21;6.33;;;4.83;;
8337;SDS011;4206;48.634;9.516;2023-02-28T06:25:48;7.30;;;5.10;;
8337;SDS011;4206;48.634;9.516;2023-02-28T06:28:16;8.63;;;5.20;;
8337;SDS011;4206;48.634;9.516;2023-02-28T06:30:42;7.50;;;4.27;;
8337;SDS011;4206;48.634;9.516;2023-02-28T06:33:11;9.37;;;4.70;;
8337;SDS011;4206;48.634;9.516;2023-02-28T06:35:38;10.70;;;5.27;;
8337;SDS011;4206;48.634;9.516;2023-02-28T06:38:06;6.83;;;4.40;;
8337;SDS011;4206;48.634;9.516;2023-02-28T06:40:33;8.20;;;4.63;;
8337;SDS011;4206;48.634;9.516;2023-02-28T06:43:01;9.03;;;5.23;;
8337;SDS011;4206;48.634;9.516;2023-02-28T06:45:29;8.53;;;4.60;;
8337;SDS011;4206;48.634;9.516;2023-02-28T06:47:56;7.90;;;5.17;;
8337;SDS011;4206;48.634;9.516;2023-02-28T06:50:24;7.63;;;4.93;;
8337;SDS011;4206;48.634;9.516;2023-02-28T06:52:51;7.90;;;4.83;;
8337;SDS011;4206;48.634;9.516;2023-02-28T06:55:20;9.80;;;5.60;;
8337;SDS011;4206;48.634;9.516;2023-02-28T06:57:47;10.70;;;5.13;;
8337;SDS011;4206;48.634;9.516;2023-02-28T07:00:14;14.60;;;9.07;;
8337;SDS011;4206;48.634;9.516;2023-02-28T07:02:41;8.07;;;4.83;;
8337;SDS011;4206;48.634;9.516;2023-02-28T07:05:09;8.30;;;4.60;;
8337;SDS011;4206;48.634;9.516;2023-02-28T07:07:36;6.97;;;4.23;;
8337;SDS011;4206;48.634;9.516;2023-02-28T07:10:05;6.20;;;4.70;;
8337;SDS011;4206;48.634;9.516;2023-02-28T07:12:32;7.30;;;4.40;;
8337;SDS011;4206;48.634;9.516;2023-02-28T07:14:59;6.83;;;5.00;;
8337;SDS011;4206;48.634;9.516;2023-02-28T07:17:26;8.20;;;4.73;;
8337;SDS011;4206;48.634;9.516;2023-02-28T07:19:53;9.03;;;5.60;;
8337;SDS011;4206;48.634;9.516;2023-02-28T07:22:20;10.70;;;5.47;;
8337;SDS011;4206;48.634;9.516;2023-02-28T07:24:46;8.07;;;5.10;;
8337;SDS011;4206;48.634;9.516;2023-02-28T07:27:14;8.30;;;5.40;;
8337;SDS011;4206;48.634;9.516;2023-02-28T07:29:49;9.00;;;5.37;;
8337;SDS011;4206;48.634;9.516;2023-02-28T07:32:17;8.43;;;4.90;;
8337;SDS011;4206;48.634;9.516;2023-02-28T07:34:45;9.93;;;5.90;;
8337;SDS011;4206;48.634;9.516;2023-02-28T07:37:12;9.63;;;6.07;;
8337;SDS011;4206;48.634;9.516;2023-02-28T07:39:39;8.23;;;6.00;;
8337;SDS011;4206;48.634;9.516;2023-02-28T07:42:08;6.53;;;5.20;;
8337;SDS011;4206;48.634;9.516;2023-02-28T07:44:38;14.40;;;6.20;;
8337;SDS011;4206;48.634;9.516;2023-02-28T07:47:07;6.57;;;4.80;;
8337;SDS011;4206;48.634;9.516;2023-02-28T07:49:35;7.83;;;5.37;;
8337;SDS011;4206;48.634;9.516;2023-02-28T07:52:03;8.27;;;5.70;;
8337;SDS011;4206;48.634;9.516;2023-02-28T07:54:31;6.10;;;4.60;;
8337;SDS011;4206;48.634;9.516;2023-02-28T07:56:59;12.37;;;5.73;;
8337;SDS011;4206;48.634;9.516;2023-02-28T07:59:26;8.20;;;5.50;;
8337;SDS011;4206;48.634;9.516;2023-02-28T08:01:57;10.33;;;5.60;;
8337;SDS011;4206;48.634;9.516;2023-02-28T08:04:25;11.40;;;6.17;;
8337;SDS011;4206;48.634;9.516;2023-02-28T08:06:53;12.07;;;6.10;;
8337;SDS011;4206;48.634;9.516;2023-02-28T08:09:20;14.10;;;6.17;;
8337;SDS011;4206;48.634;9.516;2023-02-28T08:11:47;7.20;;;5.17;;
8337;SDS011;4206;48.634;9.516;2023-02-28T08:14:14;29.17;;;6.00;;
8337;SDS011;4206;48.634;9.516;2023-02-28T08:16:42;8.40;;;5.23;;
8337;SDS011;4206;48.634;9.516;2023-02-28T08:19:09;9.30;;;6.13;;
8337;SDS011;4206;48.634;9.516;2023-02-28T08:21:36;11.87;;;4.97;;
8337;SDS011;4206;48.634;9.516;2023-02-28T08:24:03;8.07;;;5.60;;
8337;SDS011;4206;48.634;9.516;2023-02-28T08:26:31;9.60;;;5.90;;
8337;SDS011;4206;48.634;9.516;2023-02-28T08:28:58;8.63;;;5.53;;
8337;SDS011;4206;48.634;9.516;2023-02-28T08:31:26;8.50;;;5.33;;
8337;SDS011;4206;48.634;9.516;2023-02-28T08:33:54;9.53;;;6.40;;
8337;SDS011;4206;48.634;9.516;2023-02-28T08:36:25;8.20;;;6.37;;
8337;SDS011;4206;48.634;9.516;2023-02-28T08:38:56;8.53;;;5.47;;
8337;SDS011;4206;48.634;9.516;2023-02-28T08:41:23;8.30;;;6.20;;
8337;SDS011;4206;48.634;9.516;2023-02-28T08:43:50;9.30;;;5.00;;
8337;SDS011;4206;48.634;9.516;2023-02-28T08:46:17;13.90;;;7.10;;
8337;SDS011;4206;48.634;9.516;2023-02-28T08:48:44;11.00;;;6.03;;
8337;SDS011;4206;48.634;9.516;2023-02-28T08:51:14;10.43;;;6.30;;
8337;SDS011;4206;48.634;9.516;2023-02-28T08:53:45;13.07;;;7.30;;
8337;SDS011;4206;48.634;9.516;2023-02-28T08:56:13;8.77;;;5.83;;
8337;SDS011;4206;48.634;9.516;2023-02-28T08:58:43;8.43;;;6.23;;
8337;SDS011;4206;48.634;9.516;2023-02-28T09:01:13;11.90;;;6.33;;
8337;SDS011;4206;48.634;9.516;2023-02-28T09:03:41;10.57;;;6.20;;
8337;SDS011;4206;48.634;9.516;2023-02-28T09:06:10;9.83;;;7.03;;
8337;SDS011;4206;48.634;9.516;2023-02-28T09:08:37;10.80;;;6.77;;
8337;SDS011;4206;48.634;9.516;2023-02-28T09:11:05;13.30;;;7.00;;
8337;SDS011;4206;48.634;9.516;2023-02-28T09:13:33;11.23;;;6.70;;
8337;SDS011;4206;48.634;9.516;2023-02-28T09:16:01;9.60;;;5.47;;
8337;SDS011;4206;48.634;9.516;2023-02-28T09:18:31;8.97;;;6.30;;
8337;SDS011;4206;48.634;9.516;2023-02-28T09:21:02;13.10;;;6.27;;
8337;SDS011;4206;48.634;9.516;2023-02-28T09:23:30;9.87;;;6.10;;
8337;SDS011;4206;48.634;9.516;2023-02-28T09:25:57;10.00;;;5.90;;
8337;SDS011;4206;48.634;9.516;2023-02-28T09:28:24;11.50;;;6.30;;
8337;SDS011;4206;48.634;9.516;2023-02-28T09:30:53;9.23;;;5.90;;
8337;SDS011;4206;48.634;9.516;2023-02-28T09:33:21;8.90;;;5.83;;
8337;SDS011;4206;48.634;9.516;2023-02-28T09:35:48;7.47;;;5.60;;
8337;SDS011;4206;48.634;9.516;2023-02-28T09:38:16;10.50;;;5.60;;
8337;SDS011;4206;48.634;9.516;2023-02-28T09:40:47;9.10;;;5.30;;
8337;SDS011;4206;48.634;9.516;2023-02-28T09:43:19;10.40;;;6.90;;
8337;SDS011;4206;48.634;9.516;2023-02-28T09:45:51;8.27;;;5.67;;
8337;SDS011;4206;48.634;9.516;2023-02-28T09:48:28;8.60;;;5.40;;
8337;SDS011;4206;48.634;9.516;2023-02-28T09:51:11;9.37;;;5.90;;
8337;SDS011;4206;48.634;9.516;2023-02-28T09:53:41;12.07;;;5.77;;
8337;SDS011;4206;48.634;9.516;2023-02-28T09:56:15;13.90;;;6.00;;
8337;SDS011;4206;48.634;9.516;2023-02-28T10:01:39;8.83;;;6.77;;
8337;SDS011;4206;48.634;9.516;2023-02-28T10:07:11;10.13;;;5.77;;
8337;SDS011;4206;48.634;9.516;2023-02-28T10:09:47;15.90;;;5.90;;
8337;SDS011;4206;48.634;9.516;2023-02-28T10:12:20;9.37;;;6.70;;
8337;SDS011;4206;48.634;9.516;2023-02-28T10:14:49;11.60;;;6.47;;
8337;SDS011;4206;48.634;9.516;2023-02-28T10:17:20;12.13;;;5.97;;
8337;SDS011;4206;48.634;9.516;2023-02-28T10:22:39;19.67;;;9.27;;
8337;SDS011;4206;48.634;9.516;2023-02-28T10:25:24;14.20;;;7.00;;
8337;SDS011;4206;48.634;9.516;2023-02-28T10:27:53;9.80;;;6.63;;
8337;SDS011;4206;48.634;9.516;2023-02-28T10:30:26;9.47;;;6.87;;
8337;SDS011;4206;48.634;9.516;2023-02-28T10:32:54;11.80;;;6.10;;
8337;SDS011;4206;48.634;9.516;2023-02-28T10:35:22;11.10;;;6.03;;
8337;SDS011;4206;48.634;9.516;2023-02-28T10:37:56;12.10;;;7.03;;
8337;SDS011;4206;48.634;9.516;2023-02-28T10:40:27;10.40;;;6.97;;
8337;SDS011;4206;48.634;9.516;2023-02-28T10:45:31;9.30;;;6.57;;
8337;SDS011;4206;48.634;9.516;2023-02-28T10:48:02;10.33;;;6.40;;
8337;SDS011;4206;48.634;9.516;2023-02-28T10:58:46;9.53;;;6.40;;
8337;SDS011;4206;48.634;9.516;2023-02-28T11:03:59;9.00;;;6.37;;
8337;SDS011;4206;48.634;9.516;2023-02-28T11:06:28;10.87;;;6.13;;
8337;SDS011;4206;48.634;9.516;2023-02-28T11:08:58;9.50;;;6.10;;
8337;SDS011;4206;48.634;9.516;2023-02-28T11:11:29;7.30;;;5.83;;
8337;SDS011;4206;48.634;9.516;2023-02-28T11:14:14;9.20;;;6.67;;
8337;SDS011;4206;48.634;9.516;2023-02-28T11:16:52;8.40;;;6.10;;
8337;SDS011;4206;48.634;9.516;2023-02-28T11:19:24;7.77;;;5.93;;
8337;SDS011;4206;48.634;9.516;2023-02-28T11:21:56;7.70;;;6.17;;
8337;SDS011;4206;48.634;9.516;2023-02-28T11:24:30;7.60;;;6.30;;
8337;SDS011;4206;48.634;9.516;2023-02-28T11:27:02;8.47;;;6.00;;
8337;SDS011;4206;48.634;9.516;2023-02-28T11:29:30;8.53;;;6.37;;
8337;SDS011;4206;48.634;9.516;2023-02-28T11:32:00;9.60;;;5.97;;
8337;SDS011;4206;48.634;9.516;2023-02-28T11:34:28;7.10;;;5.57;;
8337;SDS011;4206;48.634;9.516;2023-02-28T11:36:57;12.40;;;6.07;;
8337;SDS011;4206;48.634;9.516;2023-02-28T11:39:26;10.93;;;6.60;;
8337;SDS011;4206;48.634;9.516;2023-02-28T11:44:41;7.43;;;5.70;;
8337;SDS011;4206;48.634;9.516;2023-02-28T11:52:42;8.53;;;6.00;;
8337;SDS011;4206;48.634;9.516;2023-02-28T12:19:08;8.57;;;5.60;;
8337;SDS011;4206;48.634;9.516;2023-02-28T12:24:28;9.40;;;6.30;;
8337;SDS011;4206;48.634;9.516;2023-02-28T12:27:00;7.30;;;5.80;;
8337;SDS011;4206;48.634;9.516;2023-02-28T12:29:32;8.33;;;5.73;;
8337;SDS011;4206;48.634;9.516;2023-02-28T12:32:16;6.00;;;5.13;;
8337;SDS011;4206;48.634;9.516;2023-02-28T12:34:47;6.20;;;5.50;;
8337;SDS011;4206;48.634;9.516;2023-02-28T12:37:22;6.90;;;5.20;;
8337;SDS011;4206;48.634;9.516;2023-02-28T12:40:00;7.13;;;5.50;;
8337;SDS011;4206;48.634;9.516;2023-02-28T12:42:33;8.80;;;5.27;;
8337;SDS011;4206;48.634;9.516;2023-02-28T12:45:10;6.70;;;5.53;;
8337;SDS011;4206;48.634;9.516;2023-02-28T12:47:50;6.83;;;5.50;;
8337;SDS011;4206;48.634;9.516;2023-02-28T12:50:24;10.00;;;6.27;;
8337;SDS011;4206;48.634;9.516;2023-02-28T12:52:59;7.10;;;5.83;;
8337;SDS011;4206;48.634;9.516;2023-02-28T13:00:47;6.67;;;5.87;;
8337;SDS011;4206;48.634;9.516;2023-02-28T13:09:15;6.00;;;4.90;;
8337;SDS011;4206;48.634;9.516;2023-02-28T13:11:46;8.20;;;5.70;;
8337;SDS011;4206;48.634;9.516;2023-02-28T13:14:18;6.23;;;4.87;;
8337;SDS011;4206;48.634;9.516;2023-02-28T13:19:30;7.20;;;5.10;;
8337;SDS011;4206;48.634;9.516;2023-02-28T13:21:59;6.63;;;5.13;;
8337;SDS011;4206;48.634;9.516;2023-02-28T13:29:45;6.10;;;5.20;;
8337;SDS011;4206;48.634;9.516;2023-02-28T13:34:41;9.20;;;6.10;;
8337;SDS011;4206;48.634;9.516;2023-02-28T13:39:45;11.93;;;6.27;;
8337;SDS011;4206;48.634;9.516;2023-02-28T13:52:53;8.80;;;6.17;;
8337;SDS011;4206;48.634;9.516;2023-02-28T14:06:08;13.33;;;6.07;;
8337;SDS011;4206;48.634;9.516;2023-02-28T14:08:35;7.80;;;5.30;;
8337;SDS011;4206;48.634;9.516;2023-02-28T14:11:05;8.00;;;5.87;;
8337;SDS011;4206;48.634;9.516;2023-02-28T14:13:37;7.00;;;5.60;;
8337;SDS011;4206;48.634;9.516;2023-02-28T14:16:16;7.63;;;5.33;;
8337;SDS011;4206;48.634;9.516;2023-02-28T14:18:49;7.23;;;5.30;;
8337;SDS011;4206;48.634;9.516;2023-02-28T14:21:29;6.43;;;4.67;;
8337;SDS011;4206;48.634;9.516;2023-02-28T14:37:33;6.77;;;5.77;;
8337;SDS011;4206;48.634;9.516;2023-02-28T14:40:11;10.60;;;5.87;;
8337;SDS011;4206;48.634;9.516;2023-02-28T14:42:46;10.10;;;6.70;;
8337;SDS011;4206;48.634;9.516;2023-02-28T14:45:22;7.87;;;5.00;;
8337;SDS011;4206;48.634;9.516;2023-02-28T14:47:50;6.20;;;5.00;;
8337;SDS011;4206;48.634;9.516;2023-02-28T14:50:18;7.83;;;6.40;;
8337;SDS011;4206;48.634;9.516;2023-02-28T14:52:47;6.30;;;5.70;;
8337;SDS011;4206;48.634;9.516;2023-02-28T14:55:19;6.93;;;5.63;;
8337;SDS011;4206;48.634;9.516;2023-02-28T14:57:54;6.50;;;5.80;;
8337;SDS011;4206;48.634;9.516;2023-02-28T15:00:24;8.50;;;5.80;;
8337;SDS011;4206;48.634;9.516;2023-02-28T15:02:53;6.43;;;5.77;;
8337;SDS011;4206;48.634;9.516;2023-02-28T15:05:25;7.90;;;5.50;;
8337;SDS011;4206;48.634;9.516;2023-02-28T15:10:34;10.97;;;6.40;;
8337;SDS011;4206;48.634;9.516;2023-02-28T15:13:04;8.43;;;5.47;;
8337;SDS011;4206;48.634;9.516;2023-02-28T15:15:39;8.27;;;5.10;;
8337;SDS011;4206;48.634;9.516;2023-02-28T15:21:01;8.40;;;5.90;;
8337;SDS011;4206;48.634;9.516;2023-02-28T15:23:31;8.83;;;5.70;;
8337;SDS011;4206;48.634;9.516;2023-02-28T15:26:01;10.20;;;5.53;;
8337;SDS011;4206;48.634;9.516;2023-02-28T15:28:28;10.10;;;6.70;;
8337;SDS011;4206;48.634;9.516;2023-02-28T15:30:59;9.70;;;6.10;;
8337;SDS011;4206;48.634;9.516;2023-02-28T15:33:29;7.73;;;5.60;;
8337;SDS011;4206;48.634;9.516;2023-02-28T15:36:06;10.63;;;5.67;;
8337;SDS011;4206;48.634;9.516;2023-02-28T15:38:43;8.80;;;5.70;;
8337;SDS011;4206;48.634;9.516;2023-02-28T15:41:21;7.53;;;5.50;;
8337;SDS011;4206;48.634;9.516;2023-02-28T15:46:43;7.23;;;5.67;;
8337;SDS011;4206;48.634;9.516;2023-02-28T15:49:21;6.97;;;5.20;;
8337;SDS011;4206;48.634;9.516;2023-02-28T15:51:50;10.70;;;5.47;;
8337;SDS011;4206;48.634;9.516;2023-02-28T15:54:22;11.00;;;6.33;;
8337;SDS011;4206;48.634;9.516;2023-02-28T15:56:51;6.57;;;5.23;;
8337;SDS011;4206;48.634;9.516;2023-02-28T15:59:21;7.60;;;5.30;;
8337;SDS011;4206;48.634;9.516;2023-02-28T16:04:37;10.17;;;6.20;;
8337;SDS011;4206;48.634;9.516;2023-02-28T16:07:20;7.37;;;5.93;;
8337;SDS011;4206;48.634;9.516;2023-02-28T16:09:47;10.13;;;6.63;;
8337;SDS011;4206;48.634;9.516;2023-02-28T16:12:14;8.80;;;6.10;;
8337;SDS011;4206;48.634;9.516;2023-02-28T16:14:41;9.20;;;6.10;;
8337;SDS011;4206;48.634;9.516;2023-02-28T16:17:15;11.47;;;6.83;;
8337;SDS011;4206;48.634;9.516;2023-02-28T16:19:47;12.40;;;6.03;;
8337;SDS011;4206;48.634;9.516;2023-02-28T16:22:14;8.73;;;6.20;;
8337;SDS011;4206;48.634;9.516;2023-02-28T16:24:41;10.43;;;6.40;;
8337;SDS011;4206;48.634;9.516;2023-02-28T16:27:17;13.43;;;6.00;;
8337;SDS011;4206;48.634;9.516;2023-02-28T16:29:47;13.73;;;8.43;;
8337;SDS011;4206;48.634;9.516;2023-02-28T16:32:15;10.00;;;6.73;;
8337;SDS011;4206;48.634;9.516;2023-02-28T16:34:43;10.07;;;6.13;;
8337;SDS011;4206;48.634;9.516;2023-02-28T16:37:12;8.60;;;6.00;;
8337;SDS011;4206;48.634;9.516;2023-02-28T16:39:41;9.70;;;6.13;;
8337;SDS011;4206;48.634;9.516;2023-02-28T16:42:10;9.07;;;6.13;;
8337;SDS011;4206;48.634;9.516;2023-02-28T16:44:42;10.30;;;6.80;;
8337;SDS011;4206;48.634;9.516;2023-02-28T16:47:10;13.60;;;7.03;;
8337;SDS011;4206;48.634;9.516;2023-02-28T16:49:37;9.43;;;6.93;;
8337;SDS011;4206;48.634;9.516;2023-02-28T16:52:10;17.20;;;6.90;;
8337;SDS011;4206;48.634;9.516;2023-02-28T16:54:38;13.23;;;6.53;;
8337;SDS011;4206;48.634;9.516;2023-02-28T16:57:06;10.63;;;7.77;;
8337;SDS011;4206;48.634;9.516;2023-02-28T16:59:41;11.97;;;7.97;;
8337;SDS011;4206;48.634;9.516;2023-02-28T17:02:10;13.00;;;8.23;;
8337;SDS011;4206;48.634;9.516;2023-02-28T17:04:40;12.70;;;7.20;;
8337;SDS011;4206;48.634;9.516;2023-02-28T17:07:10;12.33;;;6.50;;
8337;SDS011;4206;48.634;9.516;2023-02-28T17:09:39;14.23;;;8.27;;
8337;SDS011;4206;48.634;9.516;2023-02-28T17:12:10;14.50;;;8.93;;
8337;SDS011;4206;48.634;9.516;2023-02-28T17:14:37;12.93;;;7.33;;
8337;SDS011;4206;48.634;9.516;2023-02-28T17:17:05;11.40;;;7.47;;
8337;SDS011;4206;48.634;9.516;2023-02-28T17:19:32;14.47;;;8.53;;
8337;SDS011;4206;48.634;9.516;2023-02-28T17:22:00;15.13;;;9.00;;
8337;SDS011;4206;48.634;9.516;2023-02-28T17:24:29;13.47;;;8.07;;
8337;SDS011;4206;48.634;9.516;2023-02-28T17:26:59;12.93;;;8.40;;
8337;SDS011;4206;48.634;9.516;2023-02-28T17:29:27;23.43;;;10.00;;
8337;SDS011;4206;48.634;9.516;2023-02-28T17:31:55;23.10;;;11.37;;
8337;SDS011;4206;48.634;9.516;2023-02-28T17:34:25;32.13;;;14.50;;
8337;SDS011;4206;48.634;9.516;2023-02-28T17:36:52;43.43;;;18.23;;
8337;SDS011;4206;48.634;9.516;2023-02-28T17:39:20;37.43;;;17.13;;
8337;SDS011;4206;48.634;9.516;2023-02-28T17:41:51;52.13;;;21.57;;
8337;SDS011;4206;48.634;9.516;2023-02-28T17:44:19;74.13;;;26.63;;
8337;SDS011;4206;48.634;9.516;2023-02-28T17:46:47;38.17;;;17.83;;
8337;SDS011;4206;48.634;9.516;2023-02-28T17:49:16;32.93;;;14.30;;
8337;SDS011;4206;48.634;9.516;2023-02-28T17:51:44;18.60;;;11.10;;
8337;SDS011;4206;48.634;9.516;2023-02-28T17:54:11;27.30;;;13.43;;
8337;SDS011;4206;48.634;9.516;2023-02-28T17:56:40;25.50;;;12.97;;
8337;SDS011;4206;48.634;9.516;2023-02-28T17:59:09;54.97;;;23.63;;
8337;SDS011;4206;48.634;9.516;2023-02-28T18:01:38;45.90;;;20.17;;
8337;SDS011;4206;48.634;9.516;2023-02-28T18:04:05;34.83;;;15.87;;
8337;SDS011;4206;48.634;9.516;2023-02-28T18:06:35;45.20;;;20.80;;
8337;SDS011;4206;48.634;9.516;2023-02-28T18:09:20;46.83;;;22.67;;
8337;SDS011;4206;48.634;9.516;2023-02-28T18:11:49;36.83;;;18.57;;
8337;SDS011;4206;48.634;9.516;2023-02-28T18:14:19;23.17;;;13.07;;
8337;SDS011;4206;48.634;9.516;2023-02-28T18:16:49;30.77;;;15.83;;
8337;SDS011;4206;48.634;9.516;2023-02-28T18:19:16;32.60;;;16.50;;
8337;SDS011;4206;48.634;9.516;2023-02-28T18:21:44;39.50;;;18.83;;
8337;SDS011;4206;48.634;9.516;2023-02-28T18:24:12;52.67;;;24.23;;
8337;SDS011;4206;48.634;9.516;2023-02-28T18:26:41;30.53;;;14.10;;
8337;SDS011;4206;48.634;9.516;2023-02-28T18:29:08;29.00;;;14.60;;
8337;SDS011;4206;48.634;9.516;2023-02-28T18:31:43;27.80;;;15.33;;
8337;SDS011;4206;48.634;9.516;2023-02-28T18:34:10;27.17;;;15.17;;
8337;SDS011;4206;48.634;9.516;2023-02-28T18:36:37;27.37;;;13.90;;
8337;SDS011;4206;48.634;9.516;2023-02-28T18:39:04;26.17;;;15.33;;
8337;SDS011;4206;48.634;9.516;2023-02-28T18:41:31;28.33;;;14.50;;
8337;SDS011;4206;48.634;9.516;2023-02-28T18:43:59;23.17;;;13.73;;
8337;SDS011;4206;48.634;9.516;2023-02-28T18:46:39;28.97;;;15.27;;
8337;SDS011;4206;48.634;9.516;2023-02-28T18:49:06;25.17;;;13.50;;
8337;SDS011;4206;48.634;9.516;2023-02-28T18:51:33;40.70;;;20.23;;
8337;SDS011;4206;48.634;9.516;2023-02-28T18:53:59;62.07;;;28.77;;
8337;SDS011;4206;48.634;9.516;2023-02-28T18:56:26;83.00;;;35.53;;
8337;SDS011;4206;48.634;9.516;2023-02-28T18:58:54;91.20;;;36.97;;
8337;SDS011;4206;48.634;9.516;2023-02-28T19:01:27;47.40;;;22.80;;
8337;SDS011;4206;48.634;9.516;2023-02-28T19:03:58;31.57;;;16.20;;
8337;SDS011;4206;48.634;9.516;2023-02-28T19:06:28;20.53;;;11.93;;